Time;durP1;ratioP1;P1;durP2;ratioP2;P2;SDS_P1;SDS_P2;PMS_P1;PMS_P2;Temp;Humidity;BMP_temperature;BMP_pressure;BME280_temperature;BME280_humidity;BME280_pressure;Samples;Min_cycle;Max_cycle;Signal;HPM_P1;HPM_P2
2021/11/26 00:02:22;;;;;;;29.75;19.57;;;;;;;2.30;77.99;99525.70;1788305;79;21030;-72
2021/11/26 00:04:49;;;;;;;28.27;17.77;;;;;;;2.30;78.00;99531.80;1788014;79;21432;-72
2021/11/26 00:07:15;;;;;;;31.97;18.48;;;;;;;2.29;78.02;99535.39;1788261;80;21491;-72
2021/11/26 00:09:41;;;;;;;29.27;18.62;;;;;;;2.31;78.07;99528.20;1788417;80;20986;-72
2021/11/26 00:12:08;;;;;;;32.48;19.20;;;;;;;2.33;78.08;99524.10;1788187;80;21026;-72
2021/11/26 00:14:35;;;;;;;26.90;17.62;;;;;;;2.33;78.10;99526.25;1788317;80;21464;-72
2021/11/26 00:17:03;;;;;;;28.23;19.70;;;;;;;2.33;78.12;99520.16;1788334;80;21443;-72
2021/11/26 00:19:29;;;;;;;27.45;18.77;;;;;;;2.33;78.13;99523.63;1788210;80;21138;-73
2021/11/26 00:21:55;;;;;;;27.05;16.95;;;;;;;2.35;78.16;99520.86;1788062;79;20843;-73
2021/11/26 00:24:22;;;;;;;29.18;19.55;;;;;;;2.35;78.17;99514.29;1788419;80;20979;-73
2021/11/26 00:26:49;;;;;;;29.40;18.52;;;;;;;2.35;78.17;99516.92;1788280;80;20990;-73
2021/11/26 00:29:15;;;;;;;28.20;17.60;;;;;;;2.35;78.18;99511.18;1788085;80;21037;-73
2021/11/26 00:31:41;;;;;;;27.50;17.87;;;;;;;2.36;78.22;99510.19;1788391;80;21028;-73
2021/11/26 00:34:07;;;;;;;27.50;17.07;;;;;;;2.35;78.23;99511.18;1788300;80;21002;-73
2021/11/26 00:36:33;;;;;;;26.97;18.42;;;;;;;2.35;78.24;99508.55;1788199;80;20898;-73
2021/11/26 00:39:00;;;;;;;29.80;19.42;;;;;;;2.35;78.25;99509.86;1788325;80;21525;-73
2021/11/26 00:41:26;;;;;;;30.85;18.92;;;;;;;2.35;78.28;99508.55;1788170;80;20959;-73
2021/11/26 00:43:52;;;;;;;29.75;19.92;;;;;;;2.36;78.30;99508.88;1788371;80;21085;-73
2021/11/26 00:46:18;;;;;;;33.00;18.32;;;;;;;2.37;78.30;99504.45;1787997;80;21022;-73
2021/11/26 00:48:44;;;;;;;30.70;19.55;;;;;;;2.36;78.34;99501.45;1788355;80;21478;-72
2021/11/26 00:51:10;;;;;;;31.02;19.20;;;;;;;2.36;78.35;99502.30;1788134;80;20930;-72
2021/11/26 00:53:36;;;;;;;28.90;18.65;;;;;;;2.37;78.37;99498.70;1780882;80;20967;-73
2021/11/26 00:56:03;;;;;;;28.27;18.35;;;;;;;2.35;78.38;99500.66;1779972;80;21769;-72
2021/11/26 00:58:29;;;;;;;26.10;17.52;;;;;;;2.34;78.40;99500.30;1780146;79;20979;-72
2021/11/26 01:00:55;;;;;;;29.60;18.75;;;;;;;2.35;78.41;99491.45;1780183;80;20983;-72
2021/11/26 01:03:22;;;;;;;31.23;18.92;;;;;;;2.36;78.45;99500.98;1780218;80;20864;-72
2021/11/26 01:05:49;;;;;;;29.72;19.65;;;;;;;2.36;78.48;99494.41;1780073;80;21471;-72
2021/11/26 01:08:17;;;;;;;32.50;19.67;;;;;;;2.37;78.47;99490.81;1779797;80;21185;-72
2021/11/26 01:10:43;;;;;;;29.07;19.35;;;;;;;2.36;78.49;99489.14;1780013;80;21007;-72
2021/11/26 01:13:09;;;;;;;27.60;17.75;;;;;;;2.36;78.51;99486.51;1780051;80;21454;-72
2021/11/26 01:15:36;;;;;;;30.55;20.15;;;;;;;2.36;78.53;99481.25;1780042;80;21034;-73
2021/11/26 01:18:03;;;;;;;30.15;19.10;;;;;;;2.36;78.54;99481.25;1780160;80;20983;-72
2021/11/26 01:20:30;;;;;;;30.60;20.05;;;;;;;2.35;78.56;99481.41;1779995;80;21037;-72
2021/11/26 01:22:56;;;;;;;27.48;18.73;;;;;;;2.37;78.59;99473.71;1779917;80;21030;-72
2021/11/26 01:25:22;;;;;;;29.65;19.50;;;;;;;2.39;78.59;99478.33;1779650;80;20951;-72
2021/11/26 01:27:48;;;;;;;30.70;20.02;;;;;;;2.41;78.63;99470.31;1780061;80;20978;-72
2021/11/26 01:30:26;;;;;;;30.32;18.50;;;;;;;2.41;78.63;99469.83;1779994;80;20895;-72
2021/11/26 01:32:53;;;;;;;32.60;19.95;;;;;;;2.40;78.67;99458.95;1780086;80;21079;-72
2021/11/26 01:35:19;;;;;;;31.10;20.10;;;;;;;2.41;78.67;99460.63;1779521;80;21022;-72
2021/11/26 01:37:45;;;;;;;30.27;19.60;;;;;;;2.42;78.70;99457.03;1780128;80;20978;-72
2021/11/26 01:40:12;;;;;;;33.83;20.88;;;;;;;2.43;78.71;99447.31;1780443;80;21057;-72
2021/11/26 01:42:38;;;;;;;30.92;20.35;;;;;;;2.43;78.72;99442.88;1779928;80;20995;-72
2021/11/26 01:45:05;;;;;;;32.95;20.15;;;;;;;2.43;78.73;99437.62;1780331;80;20935;-72
2021/11/26 01:47:31;;;;;;;32.20;19.70;;;;;;;2.44;78.75;99439.28;1780041;80;20958;-72
2021/11/26 01:49:57;;;;;;;32.73;19.37;;;;;;;2.44;78.76;99434.02;1779853;79;21727;-72
2021/11/26 01:52:23;;;;;;;35.15;19.27;;;;;;;2.43;78.76;99433.67;1781837;80;20995;-72
2021/11/26 01:54:49;;;;;;;32.45;19.77;;;;;;;2.43;78.80;99426.26;1788417;80;21536;-72
2021/11/26 01:57:18;;;;;;;29.50;19.67;;;;;;;2.42;78.83;99420.20;1788450;80;21832;-74
2021/11/26 01:59:47;;;;;;;29.10;18.17;;;;;;;2.42;78.82;99420.20;1788518;80;21065;-73
2021/11/26 02:02:14;;;;;;;31.62;19.73;;;;;;;2.44;78.85;99422.67;1788572;78;20967;-73
2021/11/26 02:04:39;;;;;;;31.40;20.00;;;;;;;2.43;78.85;99419.20;1788132;80;21041;-73
2021/11/26 02:07:05;;;;;;;31.52;19.80;;;;;;;2.45;78.89;99424.34;1788349;80;21005;-73
2021/11/26 02:09:31;;;;;;;29.77;19.07;;;;;;;2.46;78.89;99425.48;1788353;80;21165;-73
2021/11/26 02:11:57;;;;;;;28.02;18.77;;;;;;;2.45;78.90;99413.81;1788395;80;20922;-73
2021/11/26 02:14:23;;;;;;;29.55;18.17;;;;;;;2.44;78.92;99409.52;1788409;80;21618;-74
2021/11/26 02:16:50;;;;;;;29.98;19.75;;;;;;;2.45;78.93;99400.17;1788241;80;20926;-73
2021/11/26 02:19:15;;;;;;;31.42;19.30;;;;;;;2.45;78.94;99398.86;1788513;80;21050;-73
2021/11/26 02:21:41;;;;;;;29.18;19.10;;;;;;;2.44;78.95;99402.45;1788125;80;21097;-73
2021/11/26 02:24:08;;;;;;;32.10;19.15;;;;;;;2.46;78.97;99403.64;1788110;80;21939;-73
2021/11/26 02:26:41;;;;;;;34.67;19.98;;;;;;;2.45;79.00;99401.48;1787726;80;21420;-72
2021/11/26 02:29:08;;;;;;;32.67;19.17;;;;;;;2.45;79.02;99390.97;1788461;80;21018;-72
2021/11/26 02:31:34;;;;;;;29.90;19.50;;;;;;;2.45;79.02;99385.70;1788423;80;20991;-73
2021/11/26 02:34:00;;;;;;;32.60;20.50;;;;;;;2.44;79.04;99370.88;1788553;80;21765;-72
2021/11/26 02:36:26;;;;;;;34.30;21.07;;;;;;;2.44;79.05;99380.09;1788349;80;20946;-72
2021/11/26 02:38:52;;;;;;;33.35;19.37;;;;;;;2.46;79.07;99381.27;1788132;80;20899;-72
2021/11/26 02:41:18;;;;;;;32.83;20.27;;;;;;;2.45;79.08;99384.39;1757423;80;21635;-72
2021/11/26 02:43:43;;;;;;;33.83;19.80;;;;;;;2.47;79.11;99381.11;1788286;80;21555;-73
2021/11/26 02:46:09;;;;;;;33.00;18.85;;;;;;;2.48;79.13;99382.78;1788376;80;21056;-73
2021/11/26 02:48:35;;;;;;;29.30;19.27;;;;;;;2.51;79.16;99381.66;1788185;80;21696;-73
2021/11/26 02:51:01;;;;;;;32.88;21.02;;;;;;;2.50;79.17;99382.14;1788102;80;20899;-73
2021/11/26 02:53:27;;;;;;;30.77;19.23;;;;;;;2.50;79.20;99387.40;1788139;80;20978;-73
2021/11/26 02:55:53;;;;;;;33.92;19.30;;;;;;;2.50;79.20;99390.03;1788419;80;20867;-73
2021/11/26 02:58:20;;;;;;;30.32;19.73;;;;;;;2.50;79.22;99386.56;1788107;80;21112;-73
2021/11/26 03:00:49;;;;;;;31.68;19.90;;;;;;;2.51;79.24;99388.23;1788264;80;21021;-73
2021/11/26 03:03:15;;;;;;;30.82;19.45;;;;;;;2.53;79.25;99389.42;1788475;80;21025;-72
2021/11/26 03:05:40;;;;;;;27.15;18.60;;;;;;;2.53;79.26;99392.89;1787917;80;21548;-72
2021/11/26 03:08:07;;;;;;;29.55;18.85;;;;;;;2.51;79.28;99386.44;1788252;80;21096;-73
2021/11/26 03:10:33;;;;;;;31.70;18.70;;;;;;;2.53;79.30;99389.42;1788422;80;21028;-73
2021/11/26 03:13:01;;;;;;;32.05;18.90;;;;;;;2.53;79.33;99384.48;1788264;80;20946;-73
2021/11/26 03:15:28;;;;;;;31.25;19.00;;;;;;;2.53;79.31;99385.47;1788482;80;21037;-73
2021/11/26 03:17:55;;;;;;;36.17;19.07;;;;;;;2.53;79.36;99389.42;1788288;80;21085;-73
2021/11/26 03:20:23;;;;;;;30.65;19.27;;;;;;;2.53;79.38;99373.63;1788253;78;21002;-73
2021/11/26 03:22:49;;;;;;;33.67;20.55;;;;;;;2.53;79.40;99375.27;1787983;80;21428;-73
2021/11/26 03:25:15;;;;;;;32.05;20.60;;;;;;;2.53;79.40;99377.90;1788120;80;20946;-73
2021/11/26 03:27:42;;;;;;;30.17;17.87;;;;;;;2.53;79.40;99369.69;1788393;80;20887;-73
2021/11/26 03:30:08;;;;;;;32.42;19.23;;;;;;;2.53;79.43;99369.69;1788256;79;20996;-73
2021/11/26 03:32:34;;;;;;;30.62;17.90;;;;;;;2.51;79.43;99364.07;1788491;80;22240;-73
2021/11/26 03:35:00;;;;;;;31.35;18.00;;;;;;;2.51;79.49;99365.39;1787935;80;21186;-73
2021/11/26 03:37:26;;;;;;;28.92;18.80;;;;;;;2.53;79.48;99363.11;1788422;80;21663;-73
2021/11/26 03:39:52;;;;;;;30.40;19.62;;;;;;;2.48;79.49;99369.63;1788366;80;20966;-73
2021/11/26 03:42:18;;;;;;;30.45;19.77;;;;;;;2.50;79.54;99364.20;1788104;80;20946;-73
2021/11/26 03:44:44;;;;;;;33.63;19.00;;;;;;;2.50;79.55;99366.35;1788377;80;21050;-73
2021/11/26 03:47:10;;;;;;;29.45;18.87;;;;;;;2.48;79.56;99367.00;1788344;80;21186;-73
2021/11/26 03:49:36;;;;;;;34.27;18.82;;;;;;;2.47;79.56;99365.33;1788343;80;21550;-74
2021/11/26 03:52:03;;;;;;;31.97;18.45;;;;;;;2.46;79.58;99357.08;1788253;80;20883;-73
2021/11/26 03:54:29;;;;;;;30.08;17.17;;;;;;;2.47;79.60;99361.37;1781109;80;21018;-73
2021/11/26 03:56:55;;;;;;;29.20;18.52;;;;;;;2.48;79.60;99361.73;1779736;80;20959;-73
2021/11/26 03:59:20;;;;;;;31.37;18.05;;;;;;;2.47;79.62;99349.54;1780047;80;21040;-73
2021/11/26 04:01:46;;;;;;;30.15;18.12;;;;;;;2.45;79.65;99344.92;1779909;79;20868;-74
2021/11/26 04:04:12;;;;;;;32.00;19.35;;;;;;;2.46;79.65;99342.61;1780074;80;20974;-73
2021/11/26 04:06:38;;;;;;;31.70;18.25;;;;;;;2.46;79.67;99342.61;1780053;80;20942;-73
2021/11/26 04:09:04;;;;;;;27.70;17.75;;;;;;;2.46;79.67;99339.98;1779863;80;21023;-73
2021/11/26 04:11:32;;;;;;;35.80;19.65;;;;;;;2.47;79.71;99344.28;1780114;80;21173;-73
2021/11/26 04:13:58;;;;;;;32.80;19.12;;;;;;;2.47;79.71;99336.38;1779274;80;20971;-73
2021/11/26 04:16:24;;;;;;;28.65;17.40;;;;;;;2.49;79.73;99326.56;1779972;80;20982;-73
2021/11/26 04:18:50;;;;;;;28.50;17.82;;;;;;;2.49;79.75;99318.67;1780086;79;20931;-73
2021/11/26 04:21:16;;;;;;;28.15;18.55;;;;;;;2.48;79.76;99311.73;1779897;80;20884;-73
2021/11/26 04:23:43;;;;;;;30.35;18.82;;;;;;;2.47;79.78;99315.34;1779876;80;21079;-73
2021/11/26 04:26:09;;;;;;;27.85;17.57;;;;;;;2.48;79.82;99312.22;1779856;80;20956;-73
2021/11/26 04:28:34;;;;;;;31.30;18.42;;;;;;;2.49;79.80;99316.03;1780216;79;20962;-73
2021/11/26 04:31:01;;;;;;;29.25;17.85;;;;;;;2.49;79.83;99312.58;1779742;80;20927;-73
2021/11/26 04:33:28;;;;;;;27.48;17.65;;;;;;;2.50;79.84;99311.09;1780242;80;21014;-73
2021/11/26 04:35:53;;;;;;;29.67;17.55;;;;;;;2.49;79.86;99304.20;1780150;80;21745;-73
2021/11/26 04:38:19;;;;;;;28.70;17.73;;;;;;;2.51;79.88;99300.09;1780009;79;20918;-73
2021/11/26 04:40:46;;;;;;;29.87;18.50;;;;;;;2.50;79.89;99304.52;1780249;80;20855;-74
2021/11/26 04:43:12;;;;;;;30.75;19.25;;;;;;;2.51;79.91;99308.81;1780248;80;20983;-73
2021/11/26 04:45:38;;;;;;;30.65;19.55;;;;;;;2.53;79.91;99309.16;1780159;80;21034;-73
2021/11/26 04:48:05;;;;;;;34.78;18.55;;;;;;;2.53;79.93;99307.84;1779836;80;22212;-73
2021/11/26 04:50:30;;;;;;;31.27;17.92;;;;;;;2.51;79.95;99306.19;1780402;79;21062;-73
2021/11/26 04:52:56;;;;;;;33.95;19.25;;;;;;;2.50;79.99;99305.83;1780265;80;20944;-73
2021/11/26 04:55:23;;;;;;;30.62;18.50;;;;;;;2.50;79.99;99307.15;1788603;80;20879;-73
2021/11/26 04:57:49;;;;;;;31.15;19.02;;;;;;;2.53;80.00;99301.27;1788581;80;21010;-73
2021/11/26 05:00:16;;;;;;;34.90;19.92;;;;;;;2.53;80.00;99306.53;1788637;80;21094;-73
2021/11/26 05:02:43;;;;;;;33.25;17.80;;;;;;;2.53;80.02;99310.80;1788479;80;20979;-74
2021/11/26 05:05:10;;;;;;;28.12;18.12;;;;;;;2.51;80.04;99308.81;1788090;78;20958;-73
2021/11/26 05:07:36;;;;;;;30.48;18.30;;;;;;;2.51;80.05;99308.81;1788579;80;21047;-73
2021/11/26 05:10:04;;;;;;;29.52;18.27;;;;;;;2.53;80.05;99312.11;1788750;80;20867;-73
2021/11/26 05:12:37;;;;;;;33.65;18.85;;;;;;;2.53;80.08;99307.84;1787794;80;21099;-73
2021/11/26 05:14:58;;;;;;;26.90;17.35;;;;;;;2.53;80.09;99313.11;1786685;80;20975;-73
2021/11/26 05:17:24;;;;;;;33.78;17.55;;;;;;;2.53;80.10;99321.00;1788632;80;21488;-73
2021/11/26 05:19:50;;;;;;;26.85;18.12;;;;;;;2.51;80.11;99316.70;1788621;80;20871;-73
2021/11/26 05:22:17;;;;;;;28.87;18.87;;;;;;;2.53;80.13;99311.31;1788114;80;20859;-73
2021/11/26 05:24:43;;;;;;;30.30;16.00;;;;;;;2.53;80.13;99308.17;1788545;80;21142;-73
2021/11/26 05:27:09;;;;;;;30.15;18.15;;;;;;;2.55;80.13;99307.20;1788075;80;21673;-73
2021/11/26 05:29:35;;;;;;;31.07;18.60;;;;;;;2.51;80.14;99304.86;1788730;80;20921;-73
2021/11/26 05:32:01;;;;;;;36.55;20.27;;;;;;;2.51;80.16;99306.19;1788409;80;20943;-73
2021/11/26 05:34:27;;;;;;;34.40;20.15;;;;;;;2.51;80.16;99311.45;1788512;80;20997;-73
2021/11/26 05:36:53;;;;;;;29.05;17.25;;;;;;;2.55;80.19;99309.83;1788404;80;21165;-73
2021/11/26 05:39:19;;;;;;;28.05;17.25;;;;;;;2.53;80.19;99306.85;1788575;78;20859;-73
2021/11/26 05:41:44;;;;;;;29.48;18.75;;;;;;;2.56;80.18;99306.23;1788488;80;20855;-73
2021/11/26 05:44:10;;;;;;;32.50;19.02;;;;;;;2.55;80.20;99302.77;1788100;80;21001;-73
2021/11/26 05:46:36;;;;;;;45.25;21.62;;;;;;;2.55;80.21;99295.36;1788520;80;20903;-73
2021/11/26 05:49:02;;;;;;;32.30;18.52;;;;;;;2.53;80.23;99289.75;1788186;80;21965;-73
2021/11/26 05:51:28;;;;;;;29.32;17.60;;;;;;;2.53;80.22;99285.00;1788386;80;20879;-73
2021/11/26 05:53:54;;;;;;;31.23;19.12;;;;;;;2.51;80.22;99277.23;1785598;80;20966;-73
2021/11/26 05:56:20;;;;;;;33.25;19.10;;;;;;;2.53;80.23;99277.91;1780424;80;21613;-73
2021/11/26 05:58:46;;;;;;;37.03;18.67;;;;;;;2.51;80.23;99279.87;1780110;80;20978;-73
2021/11/26 06:01:12;;;;;;;34.23;19.98;;;;;;;2.53;80.23;99273.64;1780083;80;21033;-73
2021/11/26 06:03:39;;;;;;;31.55;19.10;;;;;;;2.55;80.26;99274.31;1780093;80;20939;-73
2021/11/26 06:06:05;;;;;;;51.77;24.90;;;;;;;2.55;80.26;99274.31;1780229;80;21464;-73
2021/11/26 06:08:31;;;;;;;52.17;26.05;;;;;;;2.53;80.28;99279.73;1780118;80;20946;-73
2021/11/26 06:10:57;;;;;;;41.02;21.95;;;;;;;2.55;80.30;99275.14;1780079;80;20931;-73
2021/11/26 06:13:23;;;;;;;41.65;23.62;;;;;;;2.56;80.31;99273.34;1780179;80;20973;-73
2021/11/26 06:15:49;;;;;;;56.48;30.60;;;;;;;2.57;80.31;99271.06;1780082;80;20967;-73
2021/11/26 06:18:15;;;;;;;51.13;26.20;;;;;;;2.57;80.32;99269.75;1780076;80;20981;-73
2021/11/26 06:20:41;;;;;;;60.35;28.02;;;;;;;2.56;80.32;99274.66;1780033;80;21596;-73
2021/11/26 06:23:07;;;;;;;45.78;24.15;;;;;;;2.59;80.32;99265.15;1779817;80;20998;-73
2021/11/26 06:25:33;;;;;;;41.25;22.65;;;;;;;2.59;80.34;99263.84;1780063;80;21739;-73
2021/11/26 06:27:59;;;;;;;39.58;20.60;;;;;;;2.59;80.32;99262.52;1780243;80;20844;-73
2021/11/26 06:30:25;;;;;;;32.80;20.08;;;;;;;2.59;80.34;99257.26;1780143;80;20966;-73
2021/11/26 06:32:51;;;;;;;33.80;19.57;;;;;;;2.57;80.35;99256.08;1779985;80;20950;-73
2021/11/26 06:35:20;;;;;;;32.67;20.82;;;;;;;2.58;80.36;99254.28;1780227;80;21037;-73
2021/11/26 06:37:49;;;;;;;35.23;20.82;;;;;;;2.58;80.36;99243.75;1779963;80;21190;-73
2021/11/26 06:40:15;;;;;;;33.35;20.02;;;;;;;2.61;80.36;99243.45;1778851;80;20998;-73
2021/11/26 06:42:40;;;;;;;33.20;19.55;;;;;;;2.61;80.37;99240.82;1780122;80;20875;-73
2021/11/26 06:45:07;;;;;;;39.92;20.20;;;;;;;2.63;80.39;99245.47;1779637;80;20946;-73
2021/11/26 06:47:33;;;;;;;39.40;21.52;;;;;;;2.66;80.42;99246.48;1780112;79;20983;-73
2021/11/26 06:49:59;;;;;;;41.45;23.85;;;;;;;2.67;80.41;99244.20;1779719;80;21300;-73
2021/11/26 06:52:25;;;;;;;47.43;22.62;;;;;;;2.71;80.45;99246.87;1779583;80;21352;-73
2021/11/26 06:54:51;;;;;;;40.40;19.92;;;;;;;2.71;80.43;99238.98;1779837;79;21041;-73
2021/11/26 06:57:17;;;;;;;38.02;20.95;;;;;;;2.74;80.43;99241.31;1779865;80;20942;-73
2021/11/26 06:59:43;;;;;;;33.50;18.57;;;;;;;2.76;80.45;99235.40;1780085;79;20988;-73
2021/11/26 07:02:10;;;;;;;40.28;20.60;;;;;;;2.76;80.44;99235.40;1779889;80;21150;-73
2021/11/26 07:04:37;;;;;;;34.15;20.27;;;;;;;2.78;80.47;99236.09;1779884;80;21118;-73
2021/11/26 07:07:03;;;;;;;47.38;20.62;;;;;;;2.80;80.46;99238.08;1779727;80;21486;-73
2021/11/26 07:09:29;;;;;;;31.17;18.82;;;;;;;2.81;80.47;99241.06;1780199;79;20966;-73
2021/11/26 07:11:55;;;;;;;34.40;19.57;;;;;;;2.80;80.49;99245.97;1780076;80;20903;-73
2021/11/26 07:14:21;;;;;;;33.60;21.60;;;;;;;2.79;80.46;99247.77;1779890;80;21773;-73
2021/11/26 07:16:48;;;;;;;33.45;20.37;;;;;;;2.79;80.44;99248.26;1779991;80;20832;-73
2021/11/26 07:19:14;;;;;;;38.78;22.50;;;;;;;2.80;80.46;99238.91;1779854;80;21069;-73
2021/11/26 07:21:40;;;;;;;37.23;21.42;;;;;;;2.80;80.47;99242.02;1779842;80;20968;-73
2021/11/26 07:24:06;;;;;;;41.68;22.15;;;;;;;2.80;80.47;99242.02;1779921;80;20986;-73
2021/11/26 07:26:32;;;;;;;100.07;53.85;;;;;;;2.80;80.47;99238.08;1779971;80;21259;-73
2021/11/26 07:28:58;;;;;;;57.55;33.98;;;;;;;2.82;80.47;99234.80;1779926;80;21687;-73
2021/11/26 07:31:24;;;;;;;52.13;38.80;;;;;;;2.82;80.48;99237.42;1780194;80;21009;-73
2021/11/26 07:33:50;;;;;;;55.38;32.08;;;;;;;2.78;80.45;99234.27;1780106;80;20879;-73
2021/11/26 07:36:16;;;;;;;54.13;32.95;;;;;;;2.75;80.43;99235.88;1779914;80;20946;-73
2021/11/26 07:38:42;;;;;;;74.67;53.35;;;;;;;2.73;80.44;99226.48;1780189;80;21463;-73
2021/11/26 07:41:08;;;;;;;60.50;41.28;;;;;;;2.71;80.46;99234.52;1779542;80;20932;-73
2021/11/26 07:43:34;;;;;;;105.58;72.78;;;;;;;2.67;80.46;99228.41;1780331;80;20906;-73
2021/11/26 07:46:01;;;;;;;91.20;58.50;;;;;;;2.67;80.48;99228.41;1780113;80;21098;-73
2021/11/26 07:48:28;;;;;;;39.08;24.45;;;;;;;2.66;80.44;99228.06;1779930;80;21022;-73
2021/11/26 07:50:55;;;;;;;44.90;26.02;;;;;;;2.68;80.45;99227.41;1779836;79;21452;-73
2021/11/26 07:53:21;;;;;;;49.23;23.27;;;;;;;2.69;80.45;99223.81;1780310;80;21451;-73
2021/11/26 07:55:49;;;;;;;41.92;22.45;;;;;;;2.69;80.46;99220.70;1786448;80;21054;-73
2021/11/26 07:58:18;;;;;;;36.83;21.87;;;;;;;2.69;80.48;99215.91;1788013;80;21029;-73
2021/11/26 08:00:44;;;;;;;50.03;29.05;;;;;;;2.68;80.50;99220.34;1787195;80;21045;-73
2021/11/26 08:03:10;;;;;;;73.87;39.78;;;;;;;2.66;80.49;99213.58;1788326;80;21154;-73
2021/11/26 08:05:36;;;;;;;104.92;50.20;;;;;;;2.66;80.53;99209.64;1788131;80;21042;-73
2021/11/26 08:08:08;;;;;;;113.75;54.48;;;;;;;2.67;80.52;99210.81;1788543;80;20962;-73
2021/11/26 08:10:30;;;;;;;216.05;91.63;;;;;;;2.68;80.54;99214.25;1786974;80;20978;-73
2021/11/26 08:12:56;;;;;;;201.58;89.72;;;;;;;2.68;80.54;99216.87;1788506;80;20876;-73
2021/11/26 08:15:21;;;;;;;133.20;61.60;;;;;;;2.70;80.57;99216.27;1788309;80;21943;-73
2021/11/26 08:17:47;;;;;;;156.35;67.37;;;;;;;2.71;80.57;99216.61;1788447;80;20949;-73
2021/11/26 08:20:15;;;;;;;119.35;52.85;;;;;;;2.73;80.57;99210.21;1788040;80;20891;-73
2021/11/26 08:22:42;;;;;;;118.05;53.10;;;;;;;2.77;80.59;99206.79;1788167;80;21054;-73
2021/11/26 08:25:08;;;;;;;58.13;28.32;;;;;;;2.76;80.59;99198.55;1788578;80;21002;-73
2021/11/26 08:27:35;;;;;;;55.33;25.75;;;;;;;2.75;80.63;99194.25;1788475;80;21104;-73
2021/11/26 08:30:01;;;;;;;53.35;27.25;;;;;;;2.75;80.63;99186.35;1788446;80;21002;-73
2021/11/26 08:32:28;;;;;;;59.30;27.27;;;;;;;2.75;80.65;99190.30;1788547;80;21125;-73
2021/11/26 08:34:54;;;;;;;50.12;25.95;;;;;;;2.78;80.66;99191.34;1788560;80;21022;-73
2021/11/26 08:37:20;;;;;;;58.50;27.62;;;;;;;2.81;80.65;99193.67;1757598;80;20962;-73
2021/11/26 08:39:48;;;;;;;41.20;22.73;;;;;;;2.85;80.67;99187.94;1788525;80;21897;-73
2021/11/26 08:42:14;;;;;;;43.98;23.25;;;;;;;2.88;80.69;99185.03;1788362;80;21037;-73
2021/11/26 08:44:40;;;;;;;59.13;31.87;;;;;;;2.90;80.69;99182.22;1788379;80;21034;-73
2021/11/26 08:47:06;;;;;;;52.00;30.82;;;;;;;2.94;80.71;99189.68;1788522;78;20934;-73
2021/11/26 08:49:32;;;;;;;39.18;21.90;;;;;;;2.97;80.68;99197.76;1788173;80;20958;-73
2021/11/26 08:51:58;;;;;;;41.13;21.82;;;;;;;2.98;80.69;99198.11;1788453;80;21192;-73
2021/11/26 08:54:25;;;;;;;39.13;22.65;;;;;;;2.99;80.70;99199.77;1788299;78;20871;-73
2021/11/26 08:56:54;;;;;;;38.45;23.02;;;;;;;3.00;80.71;99200.09;1788843;80;21081;-73
2021/11/26 08:59:24;;;;;;;36.15;21.55;;;;;;;3.01;80.70;99199.95;1789005;80;21034;-72
2021/11/26 09:01:51;;;;;;;42.75;22.37;;;;;;;3.03;80.73;99193.20;1788734;80;21034;-72
2021/11/26 09:04:19;;;;;;;42.62;24.10;;;;;;;3.04;80.72;99198.80;1788983;79;21093;-72
2021/11/26 09:06:45;;;;;;;42.95;23.07;;;;;;;3.09;80.70;99194.41;1788915;80;21463;-73
2021/11/26 09:09:11;;;;;;;43.30;22.48;;;;;;;3.11;80.69;99197.70;1789156;80;20898;-73
2021/11/26 09:11:37;;;;;;;40.05;21.85;;;;;;;3.15;80.67;99194.63;1788858;80;20823;-73
2021/11/26 09:14:05;;;;;;;38.92;22.10;;;;;;;3.17;80.65;99183.44;1789016;78;20958;-72
2021/11/26 09:16:32;;;;;;;36.15;22.98;;;;;;;3.18;80.63;99185.58;1789032;80;22261;-73
2021/11/26 09:18:58;;;;;;;41.60;23.12;;;;;;;3.17;80.64;99190.02;1788660;80;21017;-73
2021/11/26 09:21:24;;;;;;;41.02;23.73;;;;;;;3.17;80.66;99184.75;1788938;80;20950;-73
2021/11/26 09:23:50;;;;;;;41.77;24.37;;;;;;;3.15;80.65;99180.14;1789201;80;20847;-73
2021/11/26 09:26:16;;;;;;;48.02;23.42;;;;;;;3.19;80.68;99177.54;1789238;80;20872;-73
2021/11/26 09:28:42;;;;;;;38.83;21.97;;;;;;;3.24;80.64;99175.26;1789302;79;21773;-73
2021/11/26 09:31:08;;;;;;;43.23;23.92;;;;;;;3.30;80.64;99168.08;1789181;80;20943;-73
2021/11/26 09:33:37;;;;;;;34.48;22.40;;;;;;;3.30;80.64;99162.81;1788994;79;21053;-73
2021/11/26 09:36:06;;;;;;;42.50;25.45;;;;;;;3.26;80.64;99157.51;1789186;80;21006;-73
2021/11/26 09:38:33;;;;;;;45.43;24.80;;;;;;;3.27;80.63;99161.77;1788780;80;20990;-73
2021/11/26 09:41:00;;;;;;;38.63;22.37;;;;;;;3.34;80.64;99157.55;1789114;80;21124;-73
2021/11/26 09:43:27;;;;;;;50.92;29.07;;;;;;;3.37;80.64;99154.63;1788983;79;21030;-73
2021/11/26 09:45:53;;;;;;;41.02;22.37;;;;;;;3.37;80.63;99157.75;1789042;80;21026;-73
2021/11/26 09:48:19;;;;;;;37.50;22.40;;;;;;;3.36;80.60;99152.13;1789188;79;20852;-73
2021/11/26 09:50:45;;;;;;;37.98;24.92;;;;;;;3.37;80.62;99143.25;1788836;80;20981;-72
2021/11/26 09:53:20;;;;;;;36.63;22.85;;;;;;;3.35;80.62;99146.52;1788724;80;21152;-72
2021/11/26 09:55:57;;;;;;;37.10;20.62;;;;;;;3.35;80.61;99133.34;1783986;79;21042;-72
2021/11/26 09:58:24;;;;;;;43.40;24.45;;;;;;;3.36;80.60;99131.88;1779031;80;21034;-72
2021/11/26 10:00:51;;;;;;;36.30;21.90;;;;;;;3.35;80.57;99124.95;1779873;80;21597;-73
2021/11/26 10:03:17;;;;;;;40.38;22.87;;;;;;;3.36;80.57;99121.34;1779781;79;21085;-72
2021/11/26 10:05:45;;;;;;;41.05;24.12;;;;;;;3.36;80.56;99112.13;1780045;80;21122;-73
2021/11/26 10:08:11;;;;;;;54.98;27.58;;;;;;;3.40;80.56;99109.52;1779831;80;21558;-73
2021/11/26 10:10:40;;;;;;;43.13;26.42;;;;;;;3.44;80.55;99110.86;1780186;79;21511;-73
2021/11/26 10:13:12;;;;;;;75.20;36.70;;;;;;;3.43;80.53;99106.56;1779941;80;21432;-73
2021/11/26 10:15:46;;;;;;;50.28;26.23;;;;;;;3.45;80.52;99105.07;1779829;80;20959;-73
2021/11/26 10:18:25;;;;;;;49.05;25.77;;;;;;;3.45;80.51;99103.75;1779996;80;21793;-73
2021/11/26 10:21:06;;;;;;;52.85;29.87;;;;;;;;;;1780001;80;21019;-73
2021/11/26 10:23:36;;;;;;;130.90;48.78;;;;;;;3.44;80.49;99093.73;1779573;80;21010;-73
2021/11/26 10:26:24;;;;;;;131.30;49.88;;;;;;;3.45;80.48;99092.73;1780279;80;21050;-72
2021/11/26 10:29:02;;;;;;;84.83;32.55;;;;;;;3.45;80.48;99096.69;1779905;80;21038;-72
2021/11/26 10:31:31;;;;;;;63.20;30.00;;;;;;;3.48;80.49;99092.93;1780034;80;21160;-72
2021/11/26 10:34:00;;;;;;;54.45;27.45;;;;;;;3.47;80.46;99094.73;1779782;80;20975;-72
2021/11/26 10:36:26;;;;;;;45.55;26.42;;;;;;;3.48;80.45;99095.05;1780339;79;21022;-72
2021/11/26 10:38:53;;;;;;;53.38;24.77;;;;;;;3.48;80.44;99091.09;1780166;80;21655;-73
2021/11/26 10:41:26;;;;;;;50.92;24.12;;;;;;;3.49;80.44;99092.75;1779893;80;20983;-72
2021/11/26 10:59:49;;;;;;;38.30;22.32;;;;;;;3.53;80.37;99045.34;1788265;80;20986;-73
2021/11/26 11:02:27;;;;;;;36.00;22.00;;;;;;;3.57;80.39;99043.70;1788030;80;21558;-73
2021/11/26 11:04:53;;;;;;;39.35;24.00;;;;;;;3.60;80.38;99047.33;1788274;80;21029;-73
2021/11/26 11:07:19;;;;;;;40.00;23.18;;;;;;;3.61;80.35;99043.72;1788337;80;21424;-73
2021/11/26 11:09:56;;;;;;;37.48;22.30;;;;;;;3.62;80.35;99036.16;1788369;80;21053;-73
2021/11/26 11:12:37;;;;;;;39.03;21.45;;;;;;;3.62;80.32;99032.20;1757422;80;20979;-73
2021/11/26 11:15:08;;;;;;;37.00;21.73;;;;;;;3.62;80.29;99026.45;1788311;80;21021;-73
2021/11/26 11:17:34;;;;;;;35.30;20.77;;;;;;;3.68;80.30;99019.70;1787090;80;20990;-73
2021/11/26 11:20:06;;;;;;;36.25;21.82;;;;;;;3.70;80.30;99015.08;1788235;80;20982;-73
2021/11/26 11:22:33;;;;;;;42.75;23.98;;;;;;;3.69;80.27;99006.86;1788275;80;21147;-73
2021/11/26 11:24:58;;;;;;;40.08;24.07;;;;;;;3.71;80.25;98995.64;1788185;80;21444;-73
2021/11/26 11:27:24;;;;;;;44.75;26.07;;;;;;;3.71;80.26;98994.33;1788477;80;20867;-73
2021/11/26 11:29:50;;;;;;;33.20;21.10;;;;;;;3.72;80.25;98984.95;1788085;80;20832;-73
2021/11/26 11:32:18;;;;;;;163.20;58.63;;;;;;;3.71;80.25;98982.47;1788197;80;21731;-73
2021/11/26 11:34:46;;;;;;;105.78;44.35;;;;;;;3.62;80.20;98976.85;1788329;80;21130;-73
2021/11/26 11:37:13;;;;;;;257.23;93.27;;;;;;;3.56;80.16;98970.39;1788204;80;20983;-73
2021/11/26 11:39:50;;;;;;;96.55;44.88;;;;;;;3.52;80.13;98969.06;1788329;80;20967;-72